createdAt,value
2017-11-04T00:01:09.472Z,100944.31
2017-11-04T00:03:10.753Z,100940.42
2017-11-04T00:05:12.372Z,100936.75
2017-11-04T00:07:13.737Z,100928.06
2017-11-04T00:09:15.106Z,100925.03
2017-11-04T00:11:16.440Z,100923.84
2017-11-04T00:13:18.814Z,100922.97
2017-11-04T00:15:21.263Z,100904.19
2017-11-04T00:17:22.808Z,100923.20
2017-11-04T00:19:24.955Z,100914.16
2017-11-04T00:21:26.613Z,100906.38
2017-11-04T00:23:27.964Z,100912.14
2017-11-04T00:25:29.413Z,100905.42
2017-11-04T00:27:31.068Z,100921.18
2017-11-04T00:29:32.400Z,100906.80
2017-11-04T00:31:33.755Z,100905.56
2017-11-04T00:33:35.283Z,100909.05
2017-11-04T00:35:36.569Z,100900.66
2017-11-04T00:37:38.003Z,100897.00
2017-11-04T00:39:39.535Z,100891.36
2017-11-04T00:41:40.983Z,100891.11
2017-11-04T00:43:42.331Z,100892.45
2017-11-04T00:45:43.893Z,100890.32
2017-11-04T00:47:45.136Z,100887.83
2017-11-04T00:49:46.675Z,100877.75
2017-11-04T00:51:48.141Z,100883.55
2017-11-04T00:53:49.674Z,100875.34
2017-11-04T00:55:51.235Z,100881.42
2017-11-04T00:57:53.714Z,100878.44
2017-11-04T00:59:55.042Z,100884.97
2017-11-04T01:01:56.493Z,100877.52
2017-11-04T01:03:57.805Z,100882.83
2017-11-04T01:05:59.200Z,100880.30
2017-11-04T01:08:00.429Z,100868.45
2017-11-04T01:10:02.005Z,100875.94
2017-11-04T01:12:03.552Z,100860.77
2017-11-04T01:14:04.977Z,100862.23
2017-11-04T01:16:06.265Z,100869.64
2017-11-04T01:18:07.671Z,100866.93
2017-11-04T01:20:08.938Z,100850.92
2017-11-04T01:22:10.317Z,100871.17
2017-11-04T01:24:12.324Z,100856.73
2017-11-04T01:26:13.981Z,100863.38
2017-11-04T01:28:15.645Z,100845.52
2017-11-04T01:30:16.960Z,100846.30
2017-11-04T01:32:18.339Z,100847.83
2017-11-04T01:34:19.654Z,100838.61
2017-11-04T01:36:20.934Z,100837.56
2017-11-04T01:38:23.160Z,100839.86
2017-11-04T01:40:24.478Z,100832.77
2017-11-04T01:42:26.481Z,100826.51
2017-11-04T01:44:27.824Z,100812.91
2017-11-04T01:46:29.276Z,100821.50
2017-11-04T01:48:30.956Z,100806.52
2017-11-04T01:50:33.212Z,100809.11
2017-11-04T01:52:34.539Z,100780.07
2017-11-04T01:54:37.224Z,100795.76
2017-11-04T01:56:38.534Z,100804.46
2017-11-04T01:58:39.866Z,100804.77
2017-11-04T02:00:41.272Z,100804.39
2017-11-04T02:02:43.521Z,100808.91
2017-11-04T02:04:44.841Z,100805.05
2017-11-04T02:06:46.082Z,100807.69
2017-11-04T02:08:48.179Z,100809.95
2017-11-04T02:10:49.454Z,100792.44
2017-11-04T02:12:50.796Z,100796.18
2017-11-04T02:14:52.211Z,100798.98
2017-11-04T02:16:53.776Z,100792.86
2017-11-04T02:18:55.221Z,100777.11
2017-11-04T02:20:56.503Z,100783.57
2017-11-04T02:22:57.837Z,100786.05
2017-11-04T02:24:59.147Z,100780.97
2017-11-04T02:27:00.531Z,100772.33
2017-11-04T02:29:02.158Z,100768.42
2017-11-04T02:31:03.711Z,100765.87
2017-11-04T02:33:05.138Z,100752.89
2017-11-04T02:35:06.585Z,100756.95
2017-11-04T02:37:09.164Z,100751.55
2017-11-04T02:39:10.443Z,100756.57
2017-11-04T02:41:12.171Z,100755.89
2017-11-04T02:43:13.511Z,100763.86
2017-11-04T02:45:14.958Z,100753.17
2017-11-04T02:47:16.478Z,100752.98
2017-11-04T02:49:17.751Z,100760.48
2017-11-04T02:51:19.309Z,100757.16
2017-11-04T02:53:20.602Z,100752.92
2017-11-04T02:55:21.940Z,100753.58
2017-11-04T02:57:24.776Z,100759.28
2017-11-04T02:59:26.081Z,100756.27
2017-11-04T03:01:27.410Z,100752.06
2017-11-04T03:03:29.423Z,100751.38
2017-11-04T03:05:30.878Z,100748.28
2017-11-04T03:07:33.008Z,100743.66
2017-11-04T03:09:35.927Z,100746.22
2017-11-04T03:11:37.482Z,100734.38
2017-11-04T03:13:38.919Z,100731.59
2017-11-04T03:15:40.186Z,100736.52
2017-11-04T03:17:41.468Z,100724.96
2017-11-04T03:19:42.849Z,100732.31
2017-11-04T03:21:44.513Z,100722.06
2017-11-04T03:23:45.838Z,100730.70
2017-11-04T03:25:47.415Z,100732.18
2017-11-04T03:27:49.060Z,100726.08
2017-11-04T03:29:50.505Z,100731.28
2017-11-04T03:31:51.856Z,100728.28
2017-11-04T03:33:53.248Z,100730.52
2017-11-04T03:35:54.656Z,100731.12
2017-11-04T03:37:55.918Z,100724.06
2017-11-04T03:39:57.352Z,100726.31
2017-11-04T03:41:58.680Z,100721.08
2017-11-04T03:43:59.946Z,100732.46
2017-11-04T03:46:01.988Z,100711.30
2017-11-04T03:48:03.336Z,100716.78
2017-11-04T03:50:04.702Z,100718.34
2017-11-04T03:52:06.132Z,100717.56
2017-11-04T03:54:07.600Z,100718.09
2017-11-04T03:56:08.921Z,100713.72
2017-11-04T03:58:10.852Z,100715.16
2017-11-04T04:00:12.191Z,100713.90
2017-11-04T04:02:13.576Z,100720.36
2017-11-04T04:04:15.031Z,100712.58
2017-11-04T04:06:16.589Z,100722.23
2017-11-04T04:08:18.016Z,100706.16
2017-11-04T04:10:19.355Z,100714.86
2017-11-04T04:12:20.604Z,100709.28
2017-11-04T04:14:23.179Z,100709.28
2017-11-04T04:16:24.531Z,100700.12
2017-11-04T04:18:25.824Z,100704.62
2017-11-04T04:20:27.322Z,100700.38
2017-11-04T04:22:29.759Z,100693.50
2017-11-04T04:24:31.343Z,100696.56
2017-11-04T04:26:32.805Z,100693.92
2017-11-04T04:28:34.253Z,100687.46
2017-11-04T04:30:35.589Z,100685.36
2017-11-04T04:32:37.136Z,100677.96
2017-11-04T04:34:38.431Z,100667.27
2017-11-04T04:36:40.037Z,100634.08
2017-11-04T04:38:42.202Z,100669.33
2017-11-04T04:40:44.467Z,100676.47
2017-11-04T04:42:45.803Z,100672.18
2017-11-04T04:44:47.648Z,100657.67
2017-11-04T04:46:48.936Z,100656.05
2017-11-04T04:48:50.261Z,100646.65
2017-11-04T04:50:51.600Z,100663.44
2017-11-04T04:52:52.962Z,100648.69
2017-11-04T04:54:55.228Z,100651.52
2017-11-04T04:56:56.635Z,100651.23
2017-11-04T04:58:58.015Z,100654.73
2017-11-04T05:00:59.865Z,100644.15
2017-11-04T05:03:01.243Z,100654.14
2017-11-04T05:05:02.672Z,100641.66
2017-11-04T05:07:04.033Z,100647.70
2017-11-04T05:09:06.377Z,100644.22
2017-11-04T05:11:08.324Z,100645.93
2017-11-04T05:13:09.797Z,100644.34
2017-11-04T05:15:11.241Z,100635.95
2017-11-04T05:17:12.688Z,100637.54
2017-11-04T05:19:14.135Z,100638.42
2017-11-04T05:21:15.586Z,100638.42
2017-11-04T05:23:17.047Z,100629.48
2017-11-04T05:25:18.478Z,100633.56
2017-11-04T05:27:19.916Z,100633.92
2017-11-04T05:29:21.211Z,100638.00
2017-11-04T05:31:22.597Z,100629.86
2017-11-04T05:33:24.081Z,100606.75
2017-11-04T05:35:25.531Z,100609.47
2017-11-04T05:37:31.268Z,100601.66
2017-11-04T05:39:32.942Z,100609.26
2017-11-04T05:41:35.601Z,100608.34
2017-11-04T05:43:37.048Z,100604.61
2017-11-04T05:45:38.811Z,100602.59
2017-11-04T05:47:40.971Z,100595.97
2017-11-04T05:49:42.525Z,100600.95
2017-11-04T05:51:44.792Z,100587.48
2017-11-04T05:53:46.235Z,100592.60
2017-11-04T05:55:47.575Z,100576.48
2017-11-04T05:57:48.926Z,100581.43
2017-11-04T05:59:50.395Z,100582.50
2017-11-04T06:01:52.029Z,100583.59
2017-11-04T06:03:53.483Z,100584.22
2017-11-04T06:05:54.801Z,100591.59
2017-11-04T06:07:56.374Z,100588.73
2017-11-04T06:09:58.021Z,100587.68
2017-11-04T06:11:59.378Z,100597.38
2017-11-04T06:14:01.025Z,100589.11
2017-11-04T06:16:02.283Z,100580.52
2017-11-04T06:18:03.602Z,100587.22
2017-11-04T06:20:05.054Z,100585.92
2017-11-04T06:22:06.403Z,100582.34
2017-11-04T06:24:07.762Z,100585.42
2017-11-04T06:26:09.400Z,100591.75
2017-11-04T06:28:10.961Z,100577.92
2017-11-04T06:30:12.508Z,100592.27
2017-11-04T06:32:14.171Z,100598.78
2017-11-04T06:34:15.593Z,100590.13
2017-11-04T06:36:16.956Z,100601.08
2017-11-04T06:38:18.420Z,100592.84
2017-11-04T06:40:19.847Z,100614.70
2017-11-04T06:42:21.196Z,100614.35
2017-11-04T06:44:22.988Z,100616.99
2017-11-04T06:46:24.291Z,100608.28
2017-11-04T06:48:28.138Z,100606.42
2017-11-04T06:50:29.661Z,100605.60
2017-11-04T06:52:30.989Z,100618.71
2017-11-04T06:54:32.644Z,100600.05
2017-11-04T06:56:34.000Z,100616.31
2017-11-04T06:58:35.317Z,100605.50
2017-11-04T07:00:37.295Z,100596.31
2017-11-04T07:02:38.954Z,100602.42
2017-11-04T07:04:40.408Z,100597.27
2017-11-04T07:06:42.368Z,100601.64
2017-11-04T07:08:43.828Z,100590.02
2017-11-04T07:10:45.489Z,100590.35
2017-11-04T07:12:47.026Z,100587.42
2017-11-04T07:14:48.679Z,100581.81
2017-11-04T07:16:50.314Z,100566.97
2017-11-04T07:18:51.869Z,100570.45
2017-11-04T07:20:53.394Z,100563.53
2017-11-04T07:22:54.722Z,100572.47
2017-11-04T07:24:56.847Z,100574.91
2017-11-04T07:26:58.490Z,100580.98
2017-11-04T07:28:59.923Z,100570.52
2017-11-04T07:31:01.267Z,100580.26
2017-11-04T07:33:02.598Z,100572.84
2017-11-04T07:35:04.692Z,100564.21
2017-11-04T07:37:06.133Z,100551.08
2017-11-04T07:39:08.193Z,100555.58
2017-11-04T07:41:09.753Z,100551.92
2017-11-04T07:43:11.206Z,100550.37
2017-11-04T07:45:12.842Z,100555.56
2017-11-04T07:47:14.180Z,100553.80
2017-11-04T07:49:15.699Z,100559.05
2017-11-04T07:51:17.814Z,100558.72
2017-11-04T07:53:19.142Z,100546.97
2017-11-04T07:55:20.607Z,100555.81
2017-11-04T07:57:22.081Z,100555.94
2017-11-04T07:59:23.607Z,100558.53
2017-11-04T08:01:25.256Z,100549.27
2017-11-04T08:03:26.810Z,100555.73
2017-11-04T08:05:28.361Z,100550.02
2017-11-04T08:07:29.709Z,100545.61
2017-11-04T08:09:35.049Z,100541.55
2017-11-04T08:11:36.692Z,100540.72
2017-11-04T08:13:38.039Z,100525.25
2017-11-04T08:15:39.596Z,100532.98
2017-11-04T08:17:41.152Z,100521.63
2017-11-04T08:19:42.711Z,100531.56
2017-11-04T08:21:44.114Z,100540.84
2017-11-04T08:23:45.579Z,100522.59
2017-11-04T08:25:47.259Z,100536.19
2017-11-04T08:27:48.689Z,100527.42
2017-11-04T08:29:50.152Z,100520.54
2017-11-04T08:31:51.781Z,100528.43
2017-11-04T08:33:53.361Z,100524.83
2017-11-04T08:35:54.682Z,100531.63
2017-11-04T08:37:56.310Z,100518.11
2017-11-04T08:39:58.278Z,100521.42
2017-11-04T08:42:00.049Z,100496.35
2017-11-04T08:44:01.706Z,100516.69
2017-11-04T08:46:03.449Z,100507.42
2017-11-04T08:48:05.014Z,100503.45
2017-11-04T08:50:06.775Z,100499.80
2017-11-04T08:52:08.318Z,100501.73
2017-11-04T08:54:09.874Z,100515.39
2017-11-04T08:56:11.410Z,100516.73
2017-11-04T08:58:13.082Z,100509.23
2017-11-04T09:00:14.838Z,100517.32
2017-11-04T09:02:16.487Z,100503.94
2017-11-04T09:04:18.052Z,100514.14
2017-11-04T09:06:19.585Z,100506.54
2017-11-04T09:08:21.135Z,100503.56
2017-11-04T09:10:22.697Z,100506.70
2017-11-04T09:12:24.260Z,100504.06
2017-11-04T09:14:25.717Z,100504.64
2017-11-04T09:16:27.437Z,100491.77
2017-11-04T09:18:29.008Z,100495.37
2017-11-04T09:20:30.340Z,100496.00
2017-11-04T09:22:31.896Z,100498.43
2017-11-04T09:24:33.555Z,100480.48
2017-11-04T09:26:35.307Z,100487.10
2017-11-04T09:28:36.858Z,100472.27
2017-11-04T09:30:38.407Z,100475.45
2017-11-04T09:32:40.155Z,100476.17
2017-11-04T09:34:41.616Z,100468.08
2017-11-04T09:36:43.157Z,100463.13
2017-11-04T09:38:44.707Z,100472.69
2017-11-04T09:40:46.363Z,100458.98
2017-11-04T09:42:47.808Z,100466.02
2017-11-04T09:44:49.563Z,100444.39
2017-11-04T09:46:51.453Z,100464.34
2017-11-04T09:48:53.201Z,100437.77
2017-11-04T09:50:54.823Z,100445.58
2017-11-04T09:52:56.285Z,100462.63
2017-11-04T09:54:57.917Z,100447.16
2017-11-04T09:56:59.374Z,100440.80
2017-11-04T09:59:01.130Z,100465.02
2017-11-04T10:01:02.789Z,100462.34
2017-11-04T10:03:04.441Z,100458.09
2017-11-04T10:05:06.409Z,100461.45
2017-11-04T10:07:07.940Z,100464.13
2017-11-04T10:09:09.510Z,100459.70
2017-11-04T10:11:11.394Z,100473.61
2017-11-04T10:13:12.678Z,100458.34
2017-11-04T10:15:14.668Z,100453.61
2017-11-04T10:17:16.209Z,100463.17
2017-11-04T10:19:17.870Z,100453.32
2017-11-04T10:21:19.626Z,100447.63
2017-11-04T10:23:21.377Z,100436.65
2017-11-04T10:25:22.917Z,100435.55
2017-11-04T10:27:24.903Z,100425.08
2017-11-04T10:29:26.857Z,100427.63
2017-11-04T10:31:28.502Z,100422.95
2017-11-04T10:33:30.372Z,100423.86
2017-11-04T10:35:32.027Z,100418.59
2017-11-04T10:37:33.684Z,100420.35
2017-11-04T10:39:35.208Z,100403.00
2017-11-04T10:41:38.713Z,100390.39
2017-11-04T10:43:40.476Z,100393.03
2017-11-04T10:45:42.121Z,100389.80
2017-11-04T10:47:43.818Z,100389.55
2017-11-04T10:49:45.336Z,100395.63
2017-11-04T10:51:46.872Z,100387.20
2017-11-04T10:53:50.184Z,100381.80
2017-11-04T10:55:51.927Z,100383.35
2017-11-04T10:57:53.585Z,100375.90
2017-11-04T10:59:55.114Z,100365.75
2017-11-04T11:01:56.880Z,100368.73
2017-11-04T11:03:58.743Z,100365.75
2017-11-04T11:06:00.706Z,100365.00
2017-11-04T11:08:02.661Z,100362.69
2017-11-04T11:10:04.829Z,100358.13
2017-11-04T11:12:06.466Z,100364.20
2017-11-04T11:14:08.246Z,100354.02
2017-11-04T11:16:09.824Z,100364.45
2017-11-04T11:18:11.641Z,100353.18
2017-11-04T11:20:13.441Z,100342.71
2017-11-04T11:22:15.148Z,100342.30
2017-11-04T11:24:17.101Z,100341.83
2017-11-04T11:26:18.755Z,100329.59
2017-11-04T11:28:20.651Z,100343.03
2017-11-04T11:30:23.024Z,100345.33
2017-11-04T11:32:24.752Z,100349.05
2017-11-04T11:34:26.593Z,100337.91
2017-11-04T11:36:28.679Z,100348.50
2017-11-04T11:38:30.761Z,100347.32
2017-11-04T11:40:32.450Z,100348.02
2017-11-04T11:42:34.240Z,100341.81
2017-11-04T11:44:35.892Z,100320.31
2017-11-04T11:46:37.625Z,100331.34
2017-11-04T11:48:39.413Z,100316.05
2017-11-04T11:50:41.377Z,100304.77
2017-11-04T11:52:43.327Z,100317.33
2017-11-04T11:54:44.987Z,100303.47
2017-11-04T11:56:46.641Z,100320.14
2017-11-04T11:58:48.294Z,100312.15
2017-11-04T12:00:50.149Z,100320.02
2017-11-04T12:02:52.007Z,100309.53
2017-11-04T12:04:53.548Z,100300.73
2017-11-04T12:06:55.302Z,100314.14
2017-11-04T12:08:58.309Z,100302.05
2017-11-04T12:11:00.161Z,100310.11
2017-11-04T12:13:02.017Z,100308.50
2017-11-04T12:15:03.970Z,100297.09
2017-11-04T12:17:05.721Z,100293.45
2017-11-04T12:19:08.084Z,100289.47
2017-11-04T12:21:09.882Z,100252.00
2017-11-04T12:23:11.721Z,100287.45
2017-11-04T12:25:13.565Z,100299.67
2017-11-04T12:27:15.232Z,100293.45
2017-11-04T12:29:17.092Z,100287.14
2017-11-04T12:31:18.839Z,100282.48
2017-11-04T12:33:20.693Z,100277.33
2017-11-04T12:35:22.460Z,100278.45
2017-11-04T12:37:24.206Z,100282.80
2017-11-04T12:39:26.068Z,100270.27
2017-11-04T12:41:27.928Z,100257.41
2017-11-04T12:43:29.671Z,100259.12
2017-11-04T12:45:31.431Z,100248.03
2017-11-04T12:47:33.279Z,100254.51
2017-11-04T12:49:35.139Z,100241.61
2017-11-04T12:51:36.994Z,100238.59
2017-11-04T12:53:42.525Z,100241.06
2017-11-04T12:55:44.723Z,100250.55
2017-11-04T12:57:46.570Z,100248.50
2017-11-04T12:59:48.116Z,100236.70
2017-11-04T13:01:49.879Z,100236.31
2017-11-04T13:03:51.734Z,100229.76
2017-11-04T13:05:53.595Z,100222.69
2017-11-04T13:07:55.471Z,100220.50
2017-11-04T13:09:57.404Z,100229.21
2017-11-04T13:12:00.116Z,100228.75
2017-11-04T13:14:02.158Z,100232.23
2017-11-04T13:16:03.989Z,100214.91
2017-11-04T13:18:05.797Z,100225.27
2017-11-04T13:20:07.726Z,100224.77
2017-11-04T13:22:09.463Z,100218.22
2017-11-04T13:24:10.917Z,100207.38
2017-11-04T13:26:12.688Z,100206.93
2017-11-04T13:28:14.245Z,100200.61
2017-11-04T13:30:15.947Z,100207.50
2017-11-04T13:32:17.811Z,100194.79
2017-11-04T13:34:19.711Z,100195.36
2017-11-04T13:36:21.253Z,100186.17
2017-11-04T13:38:23.633Z,100188.30
2017-11-04T13:40:25.299Z,100188.25
2017-11-04T13:42:26.928Z,100184.27
2017-11-04T13:44:28.665Z,100182.84
2017-11-04T13:46:30.557Z,100180.47
2017-11-04T13:48:32.361Z,100172.07
2017-11-04T13:50:34.359Z,100164.12
2017-11-04T13:52:36.129Z,100173.66
2017-11-04T13:54:37.975Z,100154.52
2017-11-04T13:56:39.847Z,100162.70
2017-11-04T13:58:41.578Z,100165.59
2017-11-04T14:00:43.331Z,100164.52
2017-11-04T14:02:45.226Z,100158.75
2017-11-04T14:04:46.882Z,100149.64
2017-11-04T14:06:48.717Z,100150.45
2017-11-04T14:08:50.341Z,100158.99
2017-11-04T14:10:52.024Z,100145.16
2017-11-04T14:12:53.776Z,100141.67
2017-11-04T14:14:55.326Z,100135.02
2017-11-04T14:16:56.978Z,100144.00
2017-11-04T14:18:58.725Z,100143.48
2017-11-04T14:21:01.435Z,100154.35
2017-11-04T14:23:03.485Z,100145.16
2017-11-04T14:25:05.246Z,100145.91
2017-11-04T14:27:07.087Z,100152.42
2017-11-04T14:29:08.837Z,100149.66
2017-11-04T14:31:10.688Z,100148.05
2017-11-04T14:33:12.563Z,100152.78
2017-11-04T14:35:14.085Z,100152.23
2017-11-04T14:37:15.873Z,100141.67
2017-11-04T14:39:18.032Z,100147.72
2017-11-04T14:41:19.788Z,100156.83
2017-11-04T14:43:21.657Z,100147.58
2017-11-04T14:45:23.510Z,100157.58
2017-11-04T14:47:25.152Z,100150.00
2017-11-04T14:49:26.727Z,100151.17
2017-11-04T14:51:28.521Z,100148.94
2017-11-04T14:53:30.466Z,100152.99
2017-11-04T14:55:32.384Z,100149.59
2017-11-04T14:57:34.248Z,100153.08
2017-11-04T14:59:36.175Z,100145.16
2017-11-04T15:01:37.947Z,100154.55
2017-11-04T15:03:39.700Z,100142.67
2017-11-04T15:05:43.611Z,100155.72
2017-11-04T15:07:45.356Z,100148.98
2017-11-04T15:09:47.114Z,100162.78
2017-11-04T15:11:48.762Z,100142.29
2017-11-04T15:13:50.424Z,100143.67
2017-11-04T15:15:52.215Z,100137.55
2017-11-04T15:17:53.935Z,100141.41
2017-11-04T15:19:55.527Z,100131.73
2017-11-04T15:21:57.385Z,100137.05
2017-11-04T15:23:59.195Z,100146.44
2017-11-04T15:26:01.166Z,100139.50
2017-11-04T15:28:02.920Z,100130.17
2017-11-04T15:30:04.466Z,100129.23
2017-11-04T15:32:06.115Z,100134.36
2017-11-04T15:34:07.672Z,100128.47
2017-11-04T15:36:09.424Z,100137.24
2017-11-04T15:38:11.205Z,100130.05
2017-11-04T15:40:12.929Z,100138.41
2017-11-04T15:42:14.619Z,100131.95
2017-11-04T15:44:16.584Z,100147.11
2017-11-04T15:46:17.971Z,100141.95
2017-11-04T15:48:19.674Z,100148.80
2017-11-04T15:50:21.391Z,100143.78
2017-11-04T15:52:23.131Z,100145.25
2017-11-04T15:54:24.709Z,100140.62
2017-11-04T15:56:26.363Z,100135.08
2017-11-04T15:58:28.130Z,100129.55
2017-11-04T16:00:29.771Z,100135.69
2017-11-04T16:02:31.424Z,100132.67
2017-11-04T16:04:33.212Z,100128.63
2017-11-04T16:06:34.712Z,100136.80
2017-11-04T16:08:37.295Z,100141.59
2017-11-04T16:10:39.161Z,100140.06
2017-11-04T16:12:41.326Z,100132.67
2017-11-04T16:14:42.965Z,100129.19
2017-11-04T16:16:44.741Z,100132.20
2017-11-04T16:18:46.377Z,100136.16
2017-11-04T16:20:47.950Z,100130.85
2017-11-04T16:22:49.595Z,100132.39
2017-11-04T16:24:51.254Z,100134.75
2017-11-04T16:26:52.900Z,100130.91
2017-11-04T16:28:54.662Z,100146.05
2017-11-04T16:30:56.202Z,100148.23
2017-11-04T16:32:57.963Z,100147.08
2017-11-04T16:34:59.505Z,100149.13
2017-11-04T16:37:01.165Z,100136.11
2017-11-04T16:39:03.126Z,100141.64
2017-11-04T16:41:04.787Z,100146.38
2017-11-04T16:43:06.531Z,100140.76
2017-11-04T16:45:08.407Z,100146.47
2017-11-04T16:47:10.040Z,100137.73
2017-11-04T16:49:11.809Z,100143.03
2017-11-04T16:51:13.354Z,100157.69
2017-11-04T16:53:15.030Z,100158.93
2017-11-04T16:55:16.976Z,100143.31
2017-11-04T16:57:18.637Z,100150.62
2017-11-04T16:59:20.157Z,100154.14
2017-11-04T17:01:22.529Z,100163.58
2017-11-04T17:03:24.157Z,100151.45
2017-11-04T17:05:26.883Z,100159.54
2017-11-04T17:07:28.509Z,100148.71
2017-11-04T17:09:30.194Z,100150.84
2017-11-04T17:11:32.031Z,100148.61
2017-11-04T17:13:33.576Z,100144.20
2017-11-04T17:15:35.336Z,100158.05
2017-11-04T17:17:36.898Z,100161.73
2017-11-04T17:19:38.436Z,100146.33
2017-11-04T17:21:39.796Z,100140.43
2017-11-04T17:23:41.559Z,100156.00
2017-11-04T17:25:43.194Z,100146.05
2017-11-04T17:27:44.930Z,100161.48
2017-11-04T17:29:47.946Z,100167.99
2017-11-04T17:31:49.506Z,100145.36
2017-11-04T17:33:51.129Z,100160.45
2017-11-04T17:35:52.897Z,100153.39
2017-11-04T17:37:54.653Z,100144.34
2017-11-04T17:39:56.615Z,100146.94
2017-11-04T17:41:58.243Z,100142.56
2017-11-04T17:44:00.023Z,100146.00
2017-11-04T17:46:01.459Z,100151.95
2017-11-04T17:48:03.314Z,100149.35
2017-11-04T17:50:05.077Z,100149.77
2017-11-04T17:52:06.825Z,100153.12
2017-11-04T17:54:08.576Z,100143.86
2017-11-04T17:56:10.344Z,100157.80
2017-11-04T17:58:12.006Z,100162.17
2017-11-04T18:00:13.744Z,100159.02
2017-11-04T18:02:15.419Z,100165.34
2017-11-04T18:04:17.161Z,100156.99
2017-11-04T18:06:18.808Z,100164.11
2017-11-04T18:08:20.461Z,100155.77
2017-11-04T18:10:22.218Z,100165.16
2017-11-04T18:12:23.851Z,100154.94
2017-11-04T18:14:25.533Z,100141.09
2017-11-04T18:16:27.167Z,100163.09
2017-11-04T18:18:29.003Z,100156.11
2017-11-04T18:20:30.696Z,100160.57
2017-11-04T18:22:32.639Z,100156.94
2017-11-04T18:24:34.615Z,100150.70
2017-11-04T18:26:36.161Z,100160.13
2017-11-04T18:28:37.812Z,100159.66
2017-11-04T18:30:39.365Z,100146.23
2017-11-04T18:32:40.938Z,100155.30
2017-11-04T18:34:42.557Z,100148.70
2017-11-04T18:36:44.333Z,100159.98
2017-11-04T18:38:45.978Z,100164.77
2017-11-04T18:40:48.241Z,100162.48
2017-11-04T18:42:49.890Z,100165.55
2017-11-04T18:44:51.659Z,100161.17
2017-11-04T18:46:53.723Z,100170.67
2017-11-04T18:48:55.376Z,100174.59
2017-11-04T18:50:57.120Z,100164.16
2017-11-04T18:52:58.777Z,100174.31
2017-11-04T18:55:00.626Z,100167.61
2017-11-04T18:57:02.188Z,100162.25
2017-11-04T18:59:03.864Z,100163.75
2017-11-04T19:01:05.388Z,100172.73
2017-11-04T19:03:07.146Z,100159.29
2017-11-04T19:05:08.711Z,100171.70
2017-11-04T19:07:11.281Z,100166.49
2017-11-04T19:09:13.011Z,100160.90
2017-11-04T19:11:14.666Z,100172.31
2017-11-04T19:13:16.327Z,100185.45
2017-11-04T19:15:17.988Z,100165.93
2017-11-04T19:17:19.742Z,100162.49
2017-11-04T19:19:21.395Z,100175.09
2017-11-04T19:21:23.047Z,100170.44
2017-11-04T19:23:24.708Z,100171.05
2017-11-04T19:25:26.465Z,100172.91
2017-11-04T19:27:28.208Z,100156.59
2017-11-04T19:29:29.870Z,100168.31
2017-11-04T19:31:31.520Z,100175.66
2017-11-04T19:33:33.173Z,100172.36
2017-11-04T19:35:34.607Z,100171.87
2017-11-04T19:37:36.259Z,100189.63
2017-11-04T19:39:38.006Z,100174.83
2017-11-04T19:41:40.800Z,100187.02
2017-11-04T19:43:42.563Z,100185.72
2017-11-04T19:45:44.213Z,100185.25
2017-11-04T19:47:45.869Z,100180.92
2017-11-04T19:49:47.621Z,100186.55
2017-11-04T19:51:49.270Z,100183.53
2017-11-04T19:53:52.464Z,100187.02
2017-11-04T19:55:54.248Z,100189.30
2017-11-04T19:57:56.189Z,100181.20
2017-11-04T19:59:57.837Z,100181.87
2017-11-04T20:01:59.585Z,100185.72
2017-11-04T20:04:01.245Z,100192.65
2017-11-04T20:06:02.909Z,100193.13
2017-11-04T20:08:04.743Z,100195.26
2017-11-04T20:10:06.511Z,100189.63
2017-11-04T20:12:08.048Z,100188.73
2017-11-04T20:14:09.709Z,100180.56
2017-11-04T20:16:11.565Z,100197.44
2017-11-04T20:18:13.210Z,100195.72
2017-11-04T20:20:14.692Z,100187.86
2017-11-04T20:22:16.208Z,100197.86
2017-11-04T20:24:17.772Z,100192.17
2017-11-04T20:26:19.418Z,100186.19
2017-11-04T20:28:22.009Z,100195.25
2017-11-04T20:30:23.633Z,100195.62
2017-11-04T20:32:25.490Z,100186.00
2017-11-04T20:34:26.986Z,100184.70
2017-11-04T20:36:28.619Z,100194.97
2017-11-04T20:38:30.129Z,100193.34
2017-11-04T20:40:31.826Z,100188.13
2017-11-04T20:42:33.479Z,100194.59
2017-11-04T20:44:35.035Z,100201.10
2017-11-04T20:46:36.674Z,100198.74
2017-11-04T20:48:38.316Z,100187.62
2017-11-04T20:50:39.979Z,100207.67
2017-11-04T20:52:41.635Z,100209.80
2017-11-04T20:54:44.110Z,100215.34
2017-11-04T20:56:45.855Z,100197.86
2017-11-04T20:58:47.420Z,100203.63
2017-11-04T21:00:49.063Z,100197.44
2017-11-04T21:02:50.620Z,100204.78
2017-11-04T21:04:52.156Z,100200.05
2017-11-04T21:06:53.811Z,100217.39
2017-11-04T21:08:55.551Z,100213.43
2017-11-04T21:10:57.145Z,100207.67
2017-11-04T21:12:58.666Z,100209.19
2017-11-04T21:15:00.326Z,100191.81
2017-11-04T21:17:01.877Z,100195.25
2017-11-04T21:19:03.530Z,100206.45
2017-11-04T21:21:05.031Z,100190.41
2017-11-04T21:23:06.731Z,100213.37
2017-11-04T21:25:08.486Z,100209.63
2017-11-04T21:27:10.256Z,100211.01
2017-11-04T21:29:11.904Z,100210.06
2017-11-04T21:31:13.449Z,100202.77
2017-11-04T21:33:15.103Z,100202.09
2017-11-04T21:35:16.630Z,100207.52
2017-11-04T21:37:19.334Z,100194.21
2017-11-04T21:39:20.880Z,100194.67
2017-11-04T21:41:22.529Z,100204.02
2017-11-04T21:43:25.109Z,100187.14
2017-11-04T21:45:26.740Z,100202.09
2017-11-04T21:47:28.524Z,100201.12
2017-11-04T21:49:30.157Z,100202.23
2017-11-04T21:51:31.788Z,100205.25
2017-11-04T21:53:33.130Z,100202.79
2017-11-04T21:55:34.705Z,100197.14
2017-11-04T21:57:36.378Z,100191.81
2017-11-04T21:59:38.423Z,100191.92
2017-11-04T22:01:39.989Z,100189.04
2017-11-04T22:03:41.640Z,100203.11
2017-11-04T22:05:43.187Z,100191.58
2017-11-04T22:07:44.947Z,100193.77
2017-11-04T22:09:46.593Z,100201.69
2017-11-04T22:11:48.128Z,100196.86
2017-11-04T22:13:49.800Z,100197.77
2017-11-04T22:15:51.397Z,100207.73
2017-11-04T22:17:55.343Z,100206.89
2017-11-04T22:19:57.016Z,100206.75
2017-11-04T22:21:58.444Z,100207.38
2017-11-04T22:24:00.211Z,100202.22
2017-11-04T22:26:01.867Z,100202.23
2017-11-04T22:28:03.618Z,100204.30
2017-11-04T22:30:05.266Z,100200.64
2017-11-04T22:32:06.935Z,100190.98
2017-11-04T22:34:08.495Z,100196.94
2017-11-04T22:36:10.223Z,100196.66
2017-11-04T22:38:11.771Z,100189.41
2017-11-04T22:40:13.319Z,100199.62
2017-11-04T22:42:15.286Z,100197.90
2017-11-04T22:44:16.846Z,100207.66
2017-11-04T22:46:18.489Z,100203.89
2017-11-04T22:48:20.466Z,100195.72
2017-11-04T22:50:22.108Z,100206.69
2017-11-04T22:52:23.558Z,100194.99
2017-11-04T22:54:25.081Z,100207.30
2017-11-04T22:56:26.582Z,100192.11
2017-11-04T22:58:28.117Z,100199.95
2017-11-04T23:00:29.855Z,100195.25
2017-11-04T23:02:31.812Z,100189.98
2017-11-04T23:04:33.499Z,100191.00
2017-11-04T23:06:34.906Z,100187.04
2017-11-04T23:08:36.564Z,100200.09